EZY46RQ EGKK-LGIR
Flight info
| Callsign | EZY46RQ |
|---|---|
| Flight time | 3h 32m |
| Altitude | 35000 |
| Route | MIMFO Y312 DVR UL9 KONAN UL607 REMBA DCT LIRSU DCT ULNOK DCT VIBOM DCT NOMBO DCT RIDAR DCT RADIZ DCT NEMEK DCT ETOBI/N0437F370 DCT MEDUX UM867 KOGAT DCT TALAS DCT KEA UL607 GIVIS T514 XAVIS |
| Aircraft | A320/M-SDE2E3FGHIJ1RWXYZ/LB1 |
Departure
| Time | 2026-04-15 10:01 |
|---|---|
| Airport | London Gatwick Airport (EGKK) |
Arrival
| Time | 2026-04-15 13:33 |
|---|---|
| Airport | Heraklion International Nikos Kazantzakis Airport (LGIR) |
| Time | Latitude | Longitude | Altitude | Speed | Heading |
|---|---|---|---|---|---|
| 2026-04-15 09:32 | 51.15929 | -0.17155 | 204 ft | 0 kts | 315° |
| 2026-04-15 09:50 | 51.15929 | -0.17154 | 204 ft | 0 kts | 315° |
| 2026-04-15 09:51 | 51.15913 | -0.17129 | 216 ft | 4 kts | 315° |
| 2026-04-15 09:51 | 51.15894 | -0.17100 | 215 ft | 4 kts | 310° |
| 2026-04-15 09:51 | 51.15887 | -0.17071 | 212 ft | 4 kts | 238° |
| 2026-04-15 09:51 | 51.15901 | -0.17050 | 213 ft | 4 kts | 213° |
| 2026-04-15 09:52 | 51.15908 | -0.17044 | 215 ft | 0 kts | 213° |
| 2026-04-15 09:54 | 51.15907 | -0.17044 | 213 ft | 1 kts | 213° |
| 2026-04-15 09:54 | 51.15864 | -0.17074 | 208 ft | 13 kts | 199° |
| 2026-04-15 09:55 | 51.15771 | -0.17071 | 204 ft | 14 kts | 170° |
| 2026-04-15 09:55 | 51.15677 | -0.17038 | 214 ft | 12 kts | 168° |
| 2026-04-15 09:55 | 51.15630 | -0.17133 | 215 ft | 13 kts | 260° |
| 2026-04-15 09:55 | 51.15608 | -0.17273 | 207 ft | 8 kts | 257° |
| 2026-04-15 09:56 | 51.15604 | -0.17302 | 210 ft | 0 kts | 257° |
| 2026-04-15 09:56 | 51.15604 | -0.17304 | 210 ft | 0 kts | 257° |
| 2026-04-15 09:56 | 51.15601 | -0.17324 | 210 ft | 6 kts | 257° |
| 2026-04-15 09:57 | 51.15590 | -0.17401 | 214 ft | 9 kts | 257° |
| 2026-04-15 09:57 | 51.15532 | -0.17434 | 204 ft | 8 kts | 168° |
| 2026-04-15 09:57 | 51.15474 | -0.17413 | 204 ft | 9 kts | 167° |
| 2026-04-15 09:57 | 51.15416 | -0.17393 | 204 ft | 7 kts | 167° |
| 2026-04-15 09:58 | 51.15396 | -0.17386 | 204 ft | 3 kts | 167° |
| 2026-04-15 09:58 | 51.15351 | -0.17370 | 206 ft | 13 kts | 167° |
| 2026-04-15 09:58 | 51.15293 | -0.17350 | 209 ft | 3 kts | 167° |
| 2026-04-15 09:58 | 51.15262 | -0.17330 | 212 ft | 0 kts | 148° |
| 2026-04-15 09:59 | 51.15245 | -0.17313 | 207 ft | 5 kts | 146° |
| 2026-04-15 09:59 | 51.15200 | -0.17261 | 207 ft | 12 kts | 138° |
| 2026-04-15 09:59 | 51.15200 | -0.17066 | 205 ft | 24 kts | 78° |
| 2026-04-15 09:59 | 51.15219 | -0.16823 | 204 ft | 17 kts | 114° |
| 2026-04-15 10:00 | 51.15124 | -0.16809 | 213 ft | 16 kts | 224° |
| 2026-04-15 10:00 | 51.15110 | -0.16885 | 206 ft | 12 kts | 259° |
| 2026-04-15 10:00 | 51.15031 | -0.17451 | 206 ft | 96 kts | 258° |
| 2026-04-15 10:00 | 51.14835 | -0.18883 | 209 ft | 165 kts | 257° |
| 2026-04-15 10:01 | 51.14596 | -0.20694 | 1045 ft | 165 kts | 254° |
| 2026-04-15 10:01 | 51.14355 | -0.22517 | 1907 ft | 175 kts | 254° |
| 2026-04-15 10:01 | 51.14082 | -0.24514 | 2460 ft | 191 kts | 253° |
| 2026-04-15 10:01 | 51.13797 | -0.26602 | 3264 ft | 194 kts | 253° |
| 2026-04-15 10:02 | 51.13511 | -0.28735 | 3859 ft | 201 kts | 254° |
| 2026-04-15 10:02 | 51.13561 | -0.30983 | 3983 ft | 212 kts | 283° |
| 2026-04-15 10:02 | 51.14450 | -0.32902 | 4009 ft | 225 kts | 318° |
| 2026-04-15 10:02 | 51.15911 | -0.33769 | 4013 ft | 236 kts | 353° |
| 2026-04-15 10:03 | 51.17539 | -0.33232 | 4009 ft | 240 kts | 29° |
| 2026-04-15 10:03 | 51.18729 | -0.31429 | 4008 ft | 237 kts | 64° |
| 2026-04-15 10:03 | 51.19312 | -0.29008 | 4017 ft | 233 kts | 79° |
| 2026-04-15 10:03 | 51.19650 | -0.26477 | 4014 ft | 235 kts | 84° |
| 2026-04-15 10:04 | 51.19950 | -0.23890 | 3998 ft | 242 kts | 84° |
| 2026-04-15 10:04 | 51.20249 | -0.21223 | 4008 ft | 246 kts | 85° |
| 2026-04-15 10:04 | 51.20565 | -0.18524 | 4011 ft | 250 kts | 84° |
| 2026-04-15 10:04 | 51.20925 | -0.15627 | 4104 ft | 278 kts | 83° |
| 2026-04-15 10:05 | 51.21322 | -0.12586 | 5184 ft | 281 kts | 82° |
| 2026-04-15 10:05 | 51.21732 | -0.09516 | 6307 ft | 285 kts | 82° |
| 2026-04-15 10:05 | 51.22152 | -0.06403 | 7356 ft | 289 kts | 82° |
| 2026-04-15 10:05 | 51.22575 | -0.03228 | 8344 ft | 296 kts | 83° |
| 2026-04-15 10:06 | 51.22995 | -0.00029 | 9311 ft | 302 kts | 83° |
| 2026-04-15 10:06 | 51.23424 | 0.03282 | 10079 ft | 309 kts | 83° |
| 2026-04-15 10:06 | 51.23870 | 0.06786 | 10511 ft | 333 kts | 83° |
| 2026-04-15 10:06 | 51.24340 | 0.10476 | 11217 ft | 344 kts | 82° |
| 2026-04-15 10:07 | 51.24824 | 0.14249 | 12082 ft | 350 kts | 82° |
| 2026-04-15 10:07 | 51.25279 | 0.18089 | 12939 ft | 354 kts | 87° |
| 2026-04-15 10:07 | 51.25351 | 0.22014 | 13739 ft | 354 kts | 98° |
| 2026-04-15 10:07 | 51.25068 | 0.25930 | 14490 ft | 357 kts | 102° |
| 2026-04-15 10:08 | 51.24762 | 0.29884 | 15257 ft | 361 kts | 102° |
| 2026-04-15 10:08 | 51.24455 | 0.33874 | 16027 ft | 364 kts | 102° |
| 2026-04-15 10:08 | 51.24144 | 0.37905 | 16813 ft | 368 kts | 102° |
| 2026-04-15 10:08 | 51.23828 | 0.41978 | 17598 ft | 372 kts | 102° |
| 2026-04-15 10:09 | 51.23507 | 0.46145 | 18327 ft | 376 kts | 102° |
| 2026-04-15 10:09 | 51.23187 | 0.50313 | 18944 ft | 381 kts | 102° |
| 2026-04-15 10:09 | 51.22868 | 0.54474 | 19554 ft | 385 kts | 102° |
| 2026-04-15 10:09 | 51.22541 | 0.58735 | 20231 ft | 389 kts | 102° |
| 2026-04-15 10:10 | 51.22207 | 0.63045 | 20901 ft | 393 kts | 102° |
| 2026-04-15 10:10 | 51.21866 | 0.67393 | 21572 ft | 397 kts | 102° |
| 2026-04-15 10:10 | 51.21518 | 0.71787 | 22245 ft | 401 kts | 102° |
| 2026-04-15 10:10 | 51.21166 | 0.76218 | 22893 ft | 405 kts | 102° |
| 2026-04-15 10:11 | 51.20808 | 0.80695 | 23531 ft | 409 kts | 102° |
| 2026-04-15 10:11 | 51.20446 | 0.85207 | 24072 ft | 412 kts | 102° |
| 2026-04-15 10:11 | 51.20078 | 0.89760 | 24619 ft | 416 kts | 102° |
| 2026-04-15 10:11 | 51.19706 | 0.94353 | 25217 ft | 419 kts | 102° |
| 2026-04-15 10:12 | 51.19331 | 0.98975 | 25687 ft | 422 kts | 102° |
| 2026-04-15 10:12 | 51.18952 | 1.03628 | 26163 ft | 426 kts | 102° |
| 2026-04-15 10:12 | 51.18565 | 1.08341 | 26637 ft | 429 kts | 102° |
| 2026-04-15 10:12 | 51.18173 | 1.13076 | 27098 ft | 433 kts | 102° |
| 2026-04-15 10:13 | 51.17777 | 1.17848 | 27555 ft | 436 kts | 102° |
| 2026-04-15 10:13 | 51.17378 | 1.22654 | 28018 ft | 439 kts | 102° |
| 2026-04-15 10:13 | 51.16972 | 1.27497 | 28467 ft | 443 kts | 102° |
| 2026-04-15 10:13 | 51.16561 | 1.32375 | 28906 ft | 446 kts | 102° |
| 2026-04-15 10:14 | 51.16154 | 1.37289 | 29336 ft | 450 kts | 102° |
| 2026-04-15 10:14 | 51.15831 | 1.42267 | 29772 ft | 454 kts | 99° |
| 2026-04-15 10:14 | 51.15588 | 1.47298 | 30193 ft | 457 kts | 97° |
| 2026-04-15 10:14 | 51.15390 | 1.52365 | 30566 ft | 460 kts | 97° |
| 2026-04-15 10:15 | 51.15198 | 1.57464 | 30929 ft | 463 kts | 97° |
| 2026-04-15 10:15 | 51.14992 | 1.62596 | 31287 ft | 465 kts | 97° |
| 2026-04-15 10:15 | 51.14760 | 1.67749 | 31663 ft | 467 kts | 98° |
| 2026-04-15 10:15 | 51.14506 | 1.72894 | 32155 ft | 466 kts | 98° |
| 2026-04-15 10:16 | 51.14239 | 1.78025 | 32649 ft | 465 kts | 98° |
| 2026-04-15 10:16 | 51.13965 | 1.83150 | 33143 ft | 464 kts | 98° |
| 2026-04-15 10:16 | 51.13691 | 1.88268 | 33638 ft | 464 kts | 98° |
| 2026-04-15 10:16 | 51.13419 | 1.93374 | 34101 ft | 463 kts | 98° |
| 2026-04-15 10:17 | 51.13150 | 1.98480 | 34510 ft | 462 kts | 98° |
| 2026-04-15 10:17 | 51.12883 | 2.03572 | 34907 ft | 462 kts | 98° |
| 2026-04-15 10:17 | 51.12616 | 2.08678 | 35089 ft | 463 kts | 98° |
| 2026-04-15 10:18 | 51.12091 | 2.18682 | 35129 ft | 446 kts | 98° |
| 2026-04-15 10:18 | 51.11560 | 2.28454 | 35127 ft | 442 kts | 98° |
| 2026-04-15 10:19 | 51.11018 | 2.38126 | 35120 ft | 442 kts | 98° |
| 2026-04-15 10:19 | 51.10471 | 2.47870 | 35133 ft | 443 kts | 97° |
| 2026-04-15 10:20 | 51.09916 | 2.57627 | 35133 ft | 443 kts | 98° |
| 2026-04-15 10:20 | 51.09098 | 2.67291 | 35139 ft | 439 kts | 108° |
| 2026-04-15 10:21 | 51.07400 | 2.76648 | 35149 ft | 448 kts | 109° |
| 2026-04-15 10:21 | 51.05623 | 2.86373 | 35157 ft | 468 kts | 108° |
| 2026-04-15 10:22 | 51.03785 | 2.96480 | 35160 ft | 482 kts | 108° |
| 2026-04-15 10:22 | 51.01915 | 3.06740 | 35161 ft | 484 kts | 108° |
| 2026-04-15 10:23 | 51.00022 | 3.17004 | 35158 ft | 485 kts | 109° |
| 2026-04-15 10:23 | 50.98112 | 3.27266 | 35158 ft | 485 kts | 109° |
| 2026-04-15 10:24 | 50.96201 | 3.37525 | 35147 ft | 485 kts | 108° |
| 2026-04-15 10:24 | 50.94276 | 3.47784 | 35154 ft | 485 kts | 108° |
| 2026-04-15 10:25 | 50.92345 | 3.58036 | 35159 ft | 485 kts | 108° |
| 2026-04-15 10:25 | 50.90395 | 3.68283 | 35166 ft | 486 kts | 108° |
| 2026-04-15 10:26 | 50.88423 | 3.78510 | 35184 ft | 486 kts | 108° |
| 2026-04-15 10:26 | 50.86433 | 3.88722 | 35189 ft | 485 kts | 108° |
| 2026-04-15 10:27 | 50.84442 | 3.98933 | 35196 ft | 485 kts | 108° |
| 2026-04-15 10:27 | 50.82456 | 4.09125 | 35205 ft | 485 kts | 108° |
| 2026-04-15 10:28 | 50.80457 | 4.19312 | 35212 ft | 485 kts | 108° |
| 2026-04-15 10:28 | 50.78442 | 4.29487 | 35204 ft | 485 kts | 108° |
| 2026-04-15 10:29 | 50.76403 | 4.39633 | 35211 ft | 485 kts | 108° |
| 2026-04-15 10:29 | 50.74377 | 4.49788 | 35213 ft | 485 kts | 108° |
| 2026-04-15 10:30 | 50.72333 | 4.59934 | 35207 ft | 485 kts | 108° |
| 2026-04-15 10:30 | 50.70325 | 4.70088 | 35207 ft | 485 kts | 107° |
| 2026-04-15 10:31 | 50.68384 | 4.80262 | 35211 ft | 485 kts | 107° |
| 2026-04-15 10:31 | 50.66410 | 4.90420 | 35215 ft | 484 kts | 110° |
| 2026-04-15 10:32 | 50.63647 | 5.00065 | 35218 ft | 483 kts | 116° |
| 2026-04-15 10:32 | 50.60784 | 5.09544 | 35220 ft | 483 kts | 116° |
| 2026-04-15 10:33 | 50.57892 | 5.19084 | 35217 ft | 483 kts | 116° |
| 2026-04-15 10:33 | 50.55001 | 5.28625 | 35214 ft | 483 kts | 116° |
| 2026-04-15 10:34 | 50.52101 | 5.38159 | 35205 ft | 484 kts | 116° |
| 2026-04-15 10:34 | 50.49183 | 5.47682 | 35213 ft | 484 kts | 116° |
| 2026-04-15 10:35 | 50.46264 | 5.57195 | 35222 ft | 484 kts | 116° |
| 2026-04-15 10:35 | 50.43332 | 5.66702 | 35218 ft | 484 kts | 116° |
| 2026-04-15 10:36 | 50.40393 | 5.76201 | 35208 ft | 484 kts | 116° |
| 2026-04-15 10:36 | 50.37449 | 5.85695 | 35209 ft | 484 kts | 116° |
| 2026-04-15 10:37 | 50.34490 | 5.95182 | 35211 ft | 485 kts | 116° |
| 2026-04-15 10:37 | 50.32024 | 6.03057 | 35221 ft | 485 kts | 115° |
| 2026-04-15 10:38 | 50.29056 | 6.12526 | 35224 ft | 485 kts | 115° |
| 2026-04-15 10:38 | 50.26080 | 6.21989 | 35224 ft | 485 kts | 115° |
| 2026-04-15 10:39 | 50.23089 | 6.31441 | 35217 ft | 485 kts | 116° |
| 2026-04-15 10:39 | 50.20084 | 6.40873 | 35222 ft | 485 kts | 116° |
| 2026-04-15 10:40 | 50.17789 | 6.50704 | 35221 ft | 482 kts | 102° |
| 2026-04-15 10:40 | 50.16155 | 6.60843 | 35235 ft | 482 kts | 102° |
| 2026-04-15 10:41 | 50.14489 | 6.70974 | 35237 ft | 482 kts | 102° |
| 2026-04-15 10:41 | 50.12807 | 6.81103 | 35238 ft | 482 kts | 102° |
| 2026-04-15 10:42 | 50.11124 | 6.91220 | 35259 ft | 482 kts | 102° |
| 2026-04-15 10:42 | 50.09433 | 7.01335 | 35263 ft | 482 kts | 102° |
| 2026-04-15 10:43 | 50.07730 | 7.11436 | 35259 ft | 482 kts | 102° |
| 2026-04-15 10:43 | 50.06025 | 7.21530 | 35257 ft | 482 kts | 102° |
| 2026-04-15 10:44 | 50.04308 | 7.31613 | 35278 ft | 482 kts | 102° |
| 2026-04-15 10:44 | 50.02592 | 7.41691 | 35268 ft | 482 kts | 102° |
| 2026-04-15 10:45 | 50.00865 | 7.51756 | 35260 ft | 482 kts | 102° |
| 2026-04-15 10:45 | 49.99126 | 7.61811 | 35259 ft | 482 kts | 102° |
| 2026-04-15 10:46 | 49.97376 | 7.71859 | 35267 ft | 482 kts | 102° |
| 2026-04-15 10:46 | 49.95619 | 7.81892 | 35277 ft | 481 kts | 102° |
| 2026-04-15 10:47 | 49.93861 | 7.91848 | 35284 ft | 481 kts | 102° |
| 2026-04-15 10:47 | 49.92082 | 8.01861 | 35280 ft | 481 kts | 102° |
| 2026-04-15 10:48 | 49.90305 | 8.11854 | 35273 ft | 481 kts | 102° |
| 2026-04-15 10:48 | 49.88525 | 8.21853 | 35280 ft | 480 kts | 101° |
| 2026-04-15 10:49 | 49.86731 | 8.31816 | 35276 ft | 480 kts | 101° |
| 2026-04-15 10:49 | 49.84566 | 8.41600 | 35264 ft | 485 kts | 114° |
| 2026-04-15 10:49 | 49.82764 | 8.46041 | 35262 ft | 489 kts | 125° |
| 2026-04-15 10:50 | 49.80646 | 8.50166 | 35263 ft | 490 kts | 126° |
| 2026-04-15 10:50 | 49.76393 | 8.58403 | 35258 ft | 490 kts | 126° |
| 2026-04-15 10:51 | 49.72142 | 8.66638 | 35254 ft | 490 kts | 126° |
| 2026-04-15 10:51 | 49.67889 | 8.74860 | 35253 ft | 490 kts | 126° |
| 2026-04-15 10:52 | 49.63618 | 8.83067 | 35257 ft | 490 kts | 126° |
| 2026-04-15 10:52 | 49.59347 | 8.91262 | 35251 ft | 490 kts | 126° |
| 2026-04-15 10:53 | 49.55074 | 8.99437 | 35267 ft | 490 kts | 126° |
| 2026-04-15 10:53 | 49.50792 | 9.07584 | 35259 ft | 490 kts | 126° |
| 2026-04-15 10:54 | 49.46535 | 9.15760 | 35253 ft | 488 kts | 121° |
| 2026-04-15 10:54 | 49.42851 | 9.24397 | 35250 ft | 487 kts | 119° |
| 2026-04-15 10:55 | 49.39152 | 9.33104 | 35241 ft | 487 kts | 119° |
| 2026-04-15 10:55 | 49.35443 | 9.41792 | 35255 ft | 487 kts | 119° |
| 2026-04-15 10:56 | 49.31717 | 9.50459 | 35254 ft | 486 kts | 119° |
| 2026-04-15 10:56 | 49.27987 | 9.59098 | 35257 ft | 486 kts | 119° |
| 2026-04-15 10:57 | 49.24262 | 9.67727 | 35236 ft | 486 kts | 119° |
| 2026-04-15 10:57 | 49.18666 | 9.80648 | 35273 ft | 486 kts | 119° |
| 2026-04-15 10:58 | 49.14927 | 9.89240 | 35271 ft | 485 kts | 119° |
| 2026-04-15 10:58 | 49.11209 | 9.97760 | 35267 ft | 485 kts | 119° |
| 2026-04-15 10:59 | 49.07453 | 10.06315 | 35249 ft | 485 kts | 120° |
| 2026-04-15 10:59 | 49.02892 | 10.14098 | 35266 ft | 492 kts | 131° |
| 2026-04-15 11:00 | 48.98049 | 10.21448 | 35270 ft | 491 kts | 130° |
| 2026-04-15 11:00 | 48.93242 | 10.28738 | 35286 ft | 491 kts | 130° |
| 2026-04-15 11:01 | 48.88397 | 10.36058 | 35284 ft | 491 kts | 131° |
| 2026-04-15 11:01 | 48.83547 | 10.43370 | 35282 ft | 491 kts | 131° |
| 2026-04-15 11:02 | 48.78722 | 10.50627 | 35286 ft | 491 kts | 131° |
| 2026-04-15 11:02 | 48.73835 | 10.57928 | 35295 ft | 491 kts | 130° |
| 2026-04-15 11:03 | 48.68979 | 10.65187 | 35283 ft | 490 kts | 130° |
| 2026-04-15 11:03 | 48.64122 | 10.72431 | 35273 ft | 490 kts | 130° |
| 2026-04-15 11:04 | 48.59267 | 10.79660 | 35266 ft | 489 kts | 128° |
| 2026-04-15 11:04 | 48.54967 | 10.87513 | 35252 ft | 485 kts | 123° |
| 2026-04-15 11:05 | 48.50713 | 10.95414 | 35275 ft | 484 kts | 123° |
| 2026-04-15 11:05 | 48.46455 | 11.03272 | 35271 ft | 484 kts | 123° |
| 2026-04-15 11:06 | 48.42196 | 11.11112 | 35266 ft | 483 kts | 123° |
| 2026-04-15 11:06 | 48.37939 | 11.18944 | 35259 ft | 483 kts | 123° |
| 2026-04-15 11:07 | 48.33684 | 11.26757 | 35257 ft | 483 kts | 123° |
| 2026-04-15 11:07 | 48.29429 | 11.34557 | 35252 ft | 482 kts | 123° |
| 2026-04-15 11:08 | 48.25174 | 11.42314 | 35244 ft | 482 kts | 123° |
| 2026-04-15 11:08 | 48.20906 | 11.50076 | 35242 ft | 482 kts | 123° |
| 2026-04-15 11:09 | 48.16645 | 11.57798 | 35236 ft | 481 kts | 123° |
| 2026-04-15 11:09 | 48.12371 | 11.65519 | 35260 ft | 481 kts | 123° |
| 2026-04-15 11:10 | 48.08100 | 11.73212 | 35257 ft | 480 kts | 123° |
| 2026-04-15 11:10 | 48.03835 | 11.80877 | 35255 ft | 479 kts | 123° |
| 2026-04-15 11:11 | 47.99573 | 11.88518 | 35258 ft | 478 kts | 123° |
| 2026-04-15 11:11 | 47.95317 | 11.96134 | 35277 ft | 477 kts | 123° |
| 2026-04-15 11:12 | 47.91058 | 12.03732 | 35263 ft | 476 kts | 123° |
| 2026-04-15 11:12 | 47.86806 | 12.11295 | 35265 ft | 476 kts | 123° |
| 2026-04-15 11:13 | 47.82555 | 12.18830 | 35253 ft | 475 kts | 124° |
| 2026-04-15 11:13 | 47.78297 | 12.26343 | 35249 ft | 475 kts | 124° |
| 2026-04-15 11:14 | 47.74039 | 12.33851 | 35244 ft | 474 kts | 124° |
| 2026-04-15 11:14 | 47.69787 | 12.41325 | 35237 ft | 474 kts | 124° |
| 2026-04-15 11:15 | 47.65529 | 12.48784 | 35237 ft | 474 kts | 124° |
| 2026-04-15 11:15 | 47.61098 | 12.56050 | 35225 ft | 479 kts | 130° |
| 2026-04-15 11:16 | 47.56284 | 12.62865 | 35246 ft | 479 kts | 131° |
| 2026-04-15 11:16 | 47.51505 | 12.69611 | 35227 ft | 477 kts | 131° |
| 2026-04-15 11:17 | 47.46697 | 12.76384 | 35218 ft | 477 kts | 132° |
| 2026-04-15 11:17 | 47.41902 | 12.83132 | 35215 ft | 476 kts | 131° |
| 2026-04-15 11:18 | 47.37107 | 12.89859 | 35200 ft | 475 kts | 131° |
| 2026-04-15 11:18 | 47.32312 | 12.96558 | 35212 ft | 475 kts | 133° |
| 2026-04-15 11:19 | 47.27518 | 13.03245 | 35209 ft | 474 kts | 133° |
| 2026-04-15 11:19 | 47.22733 | 13.09909 | 35207 ft | 473 kts | 133° |
| 2026-04-15 11:20 | 47.17949 | 13.16541 | 35209 ft | 472 kts | 133° |
| 2026-04-15 11:20 | 47.13163 | 13.23155 | 35206 ft | 472 kts | 133° |
| 2026-04-15 11:21 | 47.08387 | 13.29758 | 35215 ft | 471 kts | 134° |
| 2026-04-15 11:21 | 47.03616 | 13.36340 | 35216 ft | 471 kts | 134° |
| 2026-04-15 11:22 | 46.98839 | 13.42893 | 35211 ft | 470 kts | 134° |
| 2026-04-15 11:22 | 46.94065 | 13.49424 | 35214 ft | 470 kts | 134° |
| 2026-04-15 11:23 | 46.89292 | 13.55945 | 35216 ft | 469 kts | 134° |
| 2026-04-15 11:23 | 46.84517 | 13.62454 | 35228 ft | 469 kts | 135° |
| 2026-04-15 11:24 | 46.80556 | 13.67846 | 35234 ft | 468 kts | 135° |
| 2026-04-15 11:24 | 46.75783 | 13.74323 | 35228 ft | 468 kts | 135° |
| 2026-04-15 11:25 | 46.71023 | 13.80767 | 35238 ft | 467 kts | 135° |
| 2026-04-15 11:25 | 46.66257 | 13.87204 | 35236 ft | 467 kts | 135° |
| 2026-04-15 11:26 | 46.61490 | 13.93619 | 35241 ft | 466 kts | 136° |
| 2026-04-15 11:26 | 46.56734 | 14.00009 | 35241 ft | 465 kts | 136° |
| 2026-04-15 11:27 | 46.51986 | 14.06374 | 35253 ft | 465 kts | 136° |
| 2026-04-15 11:27 | 46.47227 | 14.12729 | 35245 ft | 464 kts | 137° |
| 2026-04-15 11:28 | 46.42472 | 14.19060 | 35242 ft | 464 kts | 137° |
| 2026-04-15 11:28 | 46.37720 | 14.25379 | 35256 ft | 463 kts | 137° |
| 2026-04-15 11:29 | 46.32978 | 14.31677 | 35258 ft | 462 kts | 137° |
| 2026-04-15 11:29 | 46.28243 | 14.37950 | 35257 ft | 461 kts | 138° |
| 2026-04-15 11:30 | 46.23499 | 14.44199 | 35252 ft | 461 kts | 138° |
| 2026-04-15 11:30 | 46.18781 | 14.50396 | 35251 ft | 461 kts | 139° |
| 2026-04-15 11:31 | 46.14041 | 14.56633 | 35251 ft | 462 kts | 139° |
| 2026-04-15 11:31 | 46.09290 | 14.62865 | 35246 ft | 462 kts | 139° |
| 2026-04-15 11:32 | 46.04539 | 14.69073 | 35242 ft | 461 kts | 139° |
| 2026-04-15 11:32 | 45.99781 | 14.75279 | 35232 ft | 461 kts | 140° |
| 2026-04-15 11:33 | 45.95026 | 14.81471 | 35234 ft | 461 kts | 140° |
| 2026-04-15 11:33 | 45.90266 | 14.87647 | 35234 ft | 461 kts | 140° |
| 2026-04-15 11:34 | 45.85501 | 14.93809 | 35239 ft | 462 kts | 140° |
| 2026-04-15 11:34 | 45.80731 | 14.99972 | 35239 ft | 461 kts | 140° |
| 2026-04-15 11:35 | 45.75959 | 15.06123 | 35237 ft | 461 kts | 140° |
| 2026-04-15 11:35 | 45.71186 | 15.12259 | 35236 ft | 461 kts | 140° |
| 2026-04-15 11:36 | 45.66414 | 15.18373 | 35230 ft | 460 kts | 141° |
| 2026-04-15 11:36 | 45.61638 | 15.24465 | 35232 ft | 461 kts | 141° |
| 2026-04-15 11:37 | 45.56937 | 15.30686 | 35233 ft | 463 kts | 133° |
| 2026-04-15 11:37 | 45.52781 | 15.37711 | 35233 ft | 463 kts | 132° |
| 2026-04-15 11:38 | 45.48624 | 15.44726 | 35230 ft | 463 kts | 133° |
| 2026-04-15 11:38 | 45.44461 | 15.51714 | 35234 ft | 462 kts | 133° |
| 2026-04-15 11:39 | 45.40319 | 15.58639 | 35235 ft | 462 kts | 133° |
| 2026-04-15 11:39 | 45.36153 | 15.65598 | 35237 ft | 462 kts | 133° |
| 2026-04-15 11:40 | 45.31996 | 15.72546 | 35234 ft | 461 kts | 133° |
| 2026-04-15 11:40 | 45.27836 | 15.79467 | 35228 ft | 460 kts | 133° |
| 2026-04-15 11:41 | 45.23673 | 15.86354 | 35220 ft | 459 kts | 133° |
| 2026-04-15 11:41 | 45.19513 | 15.93225 | 35219 ft | 459 kts | 133° |
| 2026-04-15 11:42 | 45.15356 | 16.00087 | 35223 ft | 459 kts | 133° |
| 2026-04-15 11:42 | 45.11199 | 16.06943 | 35228 ft | 458 kts | 133° |
| 2026-04-15 11:43 | 45.07039 | 16.13773 | 35221 ft | 458 kts | 133° |
| 2026-04-15 11:43 | 45.02875 | 16.20583 | 35216 ft | 457 kts | 133° |
| 2026-04-15 11:44 | 44.98715 | 16.27386 | 35208 ft | 457 kts | 133° |
| 2026-04-15 11:44 | 44.94553 | 16.34178 | 35205 ft | 457 kts | 134° |
| 2026-04-15 11:45 | 44.90382 | 16.40953 | 35200 ft | 457 kts | 134° |
| 2026-04-15 11:45 | 44.86210 | 16.47718 | 35195 ft | 458 kts | 134° |
| 2026-04-15 11:46 | 44.82028 | 16.54492 | 35197 ft | 458 kts | 134° |
| 2026-04-15 11:46 | 44.77844 | 16.61267 | 35188 ft | 459 kts | 134° |
| 2026-04-15 11:47 | 44.73650 | 16.68035 | 35183 ft | 459 kts | 133° |
| 2026-04-15 11:47 | 44.69445 | 16.74786 | 35200 ft | 459 kts | 133° |
| 2026-04-15 11:48 | 44.65233 | 16.81527 | 35205 ft | 459 kts | 133° |
| 2026-04-15 11:48 | 44.61026 | 16.88256 | 35196 ft | 459 kts | 133° |
| 2026-04-15 11:49 | 44.56843 | 16.95028 | 35180 ft | 460 kts | 131° |
| 2026-04-15 11:49 | 44.52887 | 17.02088 | 35175 ft | 461 kts | 129° |
| 2026-04-15 11:50 | 44.48993 | 17.09234 | 35172 ft | 461 kts | 129° |
| 2026-04-15 11:50 | 44.45076 | 17.16252 | 35176 ft | 460 kts | 130° |
| 2026-04-15 11:51 | 44.41064 | 17.23279 | 35185 ft | 458 kts | 130° |
| 2026-04-15 11:51 | 44.37106 | 17.30183 | 35187 ft | 457 kts | 130° |
| 2026-04-15 11:52 | 44.33146 | 17.37125 | 35175 ft | 457 kts | 130° |
| 2026-04-15 11:52 | 44.29193 | 17.44057 | 35170 ft | 456 kts | 130° |
| 2026-04-15 11:53 | 44.25239 | 17.50954 | 35159 ft | 455 kts | 130° |
| 2026-04-15 11:53 | 44.21286 | 17.57846 | 35161 ft | 455 kts | 130° |
| 2026-04-15 11:54 | 44.17338 | 17.64725 | 35168 ft | 454 kts | 130° |
| 2026-04-15 11:54 | 44.13409 | 17.71543 | 35150 ft | 452 kts | 131° |
| 2026-04-15 11:55 | 44.09459 | 17.78364 | 35153 ft | 451 kts | 130° |
| 2026-04-15 11:55 | 44.05533 | 17.85133 | 35150 ft | 450 kts | 131° |
| 2026-04-15 11:56 | 44.01594 | 17.91909 | 35136 ft | 450 kts | 130° |
| 2026-04-15 11:56 | 43.97660 | 17.98661 | 35127 ft | 450 kts | 131° |
| 2026-04-15 11:57 | 43.91750 | 18.08781 | 35097 ft | 450 kts | 131° |
| 2026-04-15 11:58 | 43.87805 | 18.15527 | 35096 ft | 451 kts | 131° |
| 2026-04-15 11:58 | 43.83846 | 18.22264 | 35092 ft | 451 kts | 131° |
| 2026-04-15 11:59 | 43.79883 | 18.28982 | 35093 ft | 451 kts | 131° |
| 2026-04-15 11:59 | 43.75918 | 18.35711 | 35096 ft | 451 kts | 131° |
| 2026-04-15 12:00 | 43.71979 | 18.42386 | 35095 ft | 451 kts | 131° |
| 2026-04-15 12:00 | 43.67979 | 18.49152 | 35099 ft | 451 kts | 131° |
| 2026-04-15 12:01 | 43.64020 | 18.55804 | 35104 ft | 451 kts | 131° |
| 2026-04-15 12:01 | 43.60034 | 18.62493 | 35096 ft | 451 kts | 131° |
| 2026-04-15 12:02 | 43.56045 | 18.69171 | 35092 ft | 451 kts | 131° |
| 2026-04-15 12:02 | 43.52051 | 18.75853 | 35093 ft | 452 kts | 131° |
| 2026-04-15 12:03 | 43.48051 | 18.82531 | 35075 ft | 452 kts | 131° |
| 2026-04-15 12:03 | 43.44046 | 18.89198 | 35076 ft | 452 kts | 131° |
| 2026-04-15 12:04 | 43.40044 | 18.95846 | 35072 ft | 451 kts | 131° |
| 2026-04-15 12:04 | 43.36035 | 19.02486 | 35064 ft | 451 kts | 131° |
| 2026-04-15 12:05 | 43.32029 | 19.09120 | 35060 ft | 451 kts | 132° |
| 2026-04-15 12:05 | 43.28017 | 19.15743 | 35070 ft | 450 kts | 132° |
| 2026-04-15 12:05 | 43.26018 | 19.19034 | 35224 ft | 450 kts | 132° |
| 2026-04-15 12:06 | 43.24014 | 19.22327 | 35695 ft | 448 kts | 132° |
| 2026-04-15 12:06 | 43.22019 | 19.25599 | 36094 ft | 447 kts | 132° |
| 2026-04-15 12:06 | 43.20018 | 19.28873 | 36447 ft | 448 kts | 132° |
| 2026-04-15 12:06 | 43.18020 | 19.32142 | 36765 ft | 448 kts | 132° |
| 2026-04-15 12:07 | 43.16018 | 19.35418 | 37022 ft | 449 kts | 132° |
| 2026-04-15 12:07 | 43.12000 | 19.41976 | 37061 ft | 449 kts | 132° |
| 2026-04-15 12:08 | 43.07994 | 19.48526 | 37055 ft | 449 kts | 132° |
| 2026-04-15 12:08 | 43.03974 | 19.55082 | 37051 ft | 450 kts | 132° |
| 2026-04-15 12:09 | 42.99943 | 19.61612 | 37053 ft | 449 kts | 132° |
| 2026-04-15 12:09 | 42.95908 | 19.68132 | 37045 ft | 449 kts | 132° |
| 2026-04-15 12:10 | 42.91885 | 19.74650 | 37045 ft | 449 kts | 132° |
| 2026-04-15 12:10 | 42.87851 | 19.81172 | 37053 ft | 450 kts | 132° |
| 2026-04-15 12:11 | 42.83807 | 19.87685 | 37045 ft | 451 kts | 133° |
| 2026-04-15 12:11 | 42.79742 | 19.94206 | 37064 ft | 451 kts | 133° |
| 2026-04-15 12:12 | 42.76358 | 19.99617 | 37066 ft | 452 kts | 133° |
| 2026-04-15 12:12 | 42.72302 | 20.06151 | 37070 ft | 452 kts | 132° |
| 2026-04-15 12:13 | 42.68305 | 20.12761 | 37082 ft | 452 kts | 131° |
| 2026-04-15 12:13 | 42.64331 | 20.19375 | 37080 ft | 452 kts | 131° |
| 2026-04-15 12:14 | 42.60338 | 20.25982 | 37104 ft | 452 kts | 132° |
| 2026-04-15 12:14 | 42.56339 | 20.32549 | 37092 ft | 452 kts | 132° |
| 2026-04-15 12:15 | 42.52325 | 20.39111 | 37100 ft | 452 kts | 133° |
| 2026-04-15 12:15 | 42.48307 | 20.45667 | 37104 ft | 452 kts | 133° |
| 2026-04-15 12:16 | 42.44291 | 20.52218 | 37095 ft | 452 kts | 133° |
| 2026-04-15 12:16 | 42.40293 | 20.58722 | 37095 ft | 453 kts | 133° |
| 2026-04-15 12:17 | 42.36264 | 20.65265 | 37112 ft | 453 kts | 133° |
| 2026-04-15 12:17 | 42.32225 | 20.71815 | 37118 ft | 453 kts | 133° |
| 2026-04-15 12:18 | 42.28180 | 20.78347 | 37124 ft | 453 kts | 133° |
| 2026-04-15 12:18 | 42.24134 | 20.84871 | 37118 ft | 454 kts | 133° |
| 2026-04-15 12:19 | 42.20080 | 20.91398 | 37127 ft | 454 kts | 133° |
| 2026-04-15 12:19 | 42.16020 | 20.97913 | 37135 ft | 454 kts | 133° |
| 2026-04-15 12:20 | 42.11898 | 21.04346 | 37151 ft | 451 kts | 139° |
| 2026-04-15 12:20 | 42.06893 | 21.09242 | 37145 ft | 444 kts | 151° |
| 2026-04-15 12:21 | 42.01652 | 21.13655 | 37138 ft | 445 kts | 151° |
| 2026-04-15 12:21 | 41.96405 | 21.18083 | 37152 ft | 445 kts | 151° |
| 2026-04-15 12:22 | 41.91159 | 21.22505 | 37153 ft | 445 kts | 151° |
| 2026-04-15 12:22 | 41.85911 | 21.26918 | 37160 ft | 445 kts | 151° |
| 2026-04-15 12:23 | 41.80659 | 21.31327 | 37159 ft | 445 kts | 152° |
| 2026-04-15 12:23 | 41.75404 | 21.35719 | 37168 ft | 445 kts | 152° |
| 2026-04-15 12:24 | 41.70151 | 21.40106 | 37172 ft | 445 kts | 152° |
| 2026-04-15 12:24 | 41.64901 | 21.44484 | 37175 ft | 445 kts | 152° |
| 2026-04-15 12:25 | 41.59686 | 21.48825 | 37174 ft | 444 kts | 152° |
| 2026-04-15 12:25 | 41.54444 | 21.53184 | 37166 ft | 444 kts | 152° |
| 2026-04-15 12:26 | 41.49203 | 21.57529 | 37170 ft | 444 kts | 152° |
| 2026-04-15 12:26 | 41.43952 | 21.61867 | 37165 ft | 444 kts | 152° |
| 2026-04-15 12:27 | 41.38700 | 21.66202 | 37176 ft | 444 kts | 152° |
| 2026-04-15 12:27 | 41.33447 | 21.70523 | 37176 ft | 444 kts | 152° |
| 2026-04-15 12:28 | 41.28203 | 21.74828 | 37176 ft | 443 kts | 152° |
| 2026-04-15 12:28 | 41.22970 | 21.79137 | 37181 ft | 442 kts | 152° |
| 2026-04-15 12:29 | 41.17743 | 21.83427 | 37178 ft | 442 kts | 152° |
| 2026-04-15 12:29 | 41.12514 | 21.87700 | 37181 ft | 441 kts | 152° |
| 2026-04-15 12:30 | 41.07280 | 21.91957 | 37173 ft | 441 kts | 153° |
| 2026-04-15 12:30 | 41.01952 | 21.95930 | 37183 ft | 439 kts | 156° |
| 2026-04-15 12:31 | 40.96551 | 21.99681 | 37184 ft | 438 kts | 156° |
| 2026-04-15 12:31 | 40.91161 | 22.03432 | 37189 ft | 438 kts | 156° |
| 2026-04-15 12:32 | 40.85791 | 22.07251 | 37195 ft | 438 kts | 155° |
| 2026-04-15 12:32 | 40.80464 | 22.11069 | 37192 ft | 439 kts | 155° |
| 2026-04-15 12:33 | 40.75090 | 22.14891 | 37182 ft | 439 kts | 156° |
| 2026-04-15 12:33 | 40.69717 | 22.18698 | 37188 ft | 439 kts | 156° |
| 2026-04-15 12:34 | 40.64340 | 22.22503 | 37191 ft | 439 kts | 156° |
| 2026-04-15 12:34 | 40.58965 | 22.26303 | 37193 ft | 439 kts | 156° |
| 2026-04-15 12:35 | 40.53581 | 22.30092 | 37197 ft | 439 kts | 156° |
| 2026-04-15 12:35 | 40.48199 | 22.33876 | 37200 ft | 439 kts | 156° |
| 2026-04-15 12:36 | 40.42810 | 22.37659 | 37202 ft | 439 kts | 156° |
| 2026-04-15 12:36 | 40.37424 | 22.41441 | 37194 ft | 439 kts | 156° |
| 2026-04-15 12:37 | 40.32027 | 22.45218 | 37199 ft | 439 kts | 156° |
| 2026-04-15 12:37 | 40.26629 | 22.48991 | 37182 ft | 440 kts | 157° |
| 2026-04-15 12:38 | 40.21221 | 22.52754 | 37183 ft | 441 kts | 157° |
| 2026-04-15 12:38 | 40.15844 | 22.56496 | 37185 ft | 441 kts | 157° |
| 2026-04-15 12:39 | 40.10421 | 22.60260 | 37176 ft | 441 kts | 157° |
| 2026-04-15 12:39 | 40.05004 | 22.64006 | 37176 ft | 441 kts | 157° |
| 2026-04-15 12:40 | 39.99587 | 22.67759 | 37181 ft | 441 kts | 157° |
| 2026-04-15 12:40 | 39.94167 | 22.71508 | 37181 ft | 441 kts | 157° |
| 2026-04-15 12:41 | 39.88748 | 22.75242 | 37159 ft | 441 kts | 156° |
| 2026-04-15 12:41 | 39.83322 | 22.78972 | 37144 ft | 441 kts | 157° |
| 2026-04-15 12:42 | 39.77891 | 22.82693 | 37142 ft | 441 kts | 157° |
| 2026-04-15 12:42 | 39.72453 | 22.86423 | 37151 ft | 442 kts | 157° |
| 2026-04-15 12:43 | 39.67014 | 22.90148 | 37155 ft | 442 kts | 157° |
| 2026-04-15 12:43 | 39.61574 | 22.93869 | 37152 ft | 442 kts | 156° |
| 2026-04-15 12:44 | 39.56126 | 22.97587 | 37154 ft | 442 kts | 156° |
| 2026-04-15 12:44 | 39.50677 | 23.01289 | 37155 ft | 442 kts | 156° |
| 2026-04-15 12:45 | 39.45230 | 23.04991 | 37155 ft | 442 kts | 156° |
| 2026-04-15 12:45 | 39.39780 | 23.08695 | 37163 ft | 442 kts | 156° |
| 2026-04-15 12:46 | 39.34362 | 23.12361 | 37156 ft | 442 kts | 156° |
| 2026-04-15 12:46 | 39.28921 | 23.16037 | 37171 ft | 441 kts | 156° |
| 2026-04-15 12:47 | 39.23478 | 23.19711 | 37168 ft | 441 kts | 156° |
| 2026-04-15 12:47 | 39.18037 | 23.23377 | 37166 ft | 441 kts | 156° |
| 2026-04-15 12:48 | 39.12597 | 23.27031 | 37163 ft | 441 kts | 156° |
| 2026-04-15 12:48 | 39.07152 | 23.30688 | 37165 ft | 441 kts | 156° |
| 2026-04-15 12:49 | 39.01707 | 23.34339 | 37161 ft | 441 kts | 156° |
| 2026-04-15 12:49 | 38.96258 | 23.37985 | 37167 ft | 441 kts | 156° |
| 2026-04-15 12:50 | 38.90817 | 23.41621 | 37154 ft | 441 kts | 156° |
| 2026-04-15 12:50 | 38.85370 | 23.45251 | 37148 ft | 441 kts | 156° |
| 2026-04-15 12:51 | 38.79928 | 23.48871 | 37145 ft | 441 kts | 156° |
| 2026-04-15 12:51 | 38.74485 | 23.52485 | 37147 ft | 441 kts | 156° |
| 2026-04-15 12:52 | 38.69041 | 23.56091 | 37142 ft | 441 kts | 156° |
| 2026-04-15 12:52 | 38.63628 | 23.59669 | 37145 ft | 441 kts | 156° |
| 2026-04-15 12:53 | 38.58185 | 23.63264 | 37139 ft | 440 kts | 156° |
| 2026-04-15 12:53 | 38.52739 | 23.66859 | 37141 ft | 440 kts | 156° |
| 2026-04-15 12:54 | 38.47301 | 23.70447 | 37140 ft | 440 kts | 156° |
| 2026-04-15 12:54 | 38.41851 | 23.74029 | 37130 ft | 440 kts | 156° |
| 2026-04-15 12:55 | 38.36433 | 23.77586 | 37120 ft | 440 kts | 156° |
| 2026-04-15 12:55 | 38.30952 | 23.81174 | 37130 ft | 440 kts | 156° |
| 2026-04-15 12:56 | 38.25503 | 23.84732 | 37133 ft | 440 kts | 156° |
| 2026-04-15 12:56 | 38.20055 | 23.88288 | 37135 ft | 440 kts | 156° |
| 2026-04-15 12:57 | 38.14607 | 23.91842 | 37134 ft | 440 kts | 156° |
| 2026-04-15 12:57 | 38.09164 | 23.95392 | 37128 ft | 440 kts | 156° |
| 2026-04-15 12:58 | 38.03717 | 23.98933 | 37129 ft | 440 kts | 156° |
| 2026-04-15 12:58 | 37.98266 | 24.02469 | 37130 ft | 440 kts | 156° |
| 2026-04-15 12:59 | 37.90097 | 24.07749 | 37108 ft | 440 kts | 157° |
| 2026-04-15 12:59 | 37.84660 | 24.11269 | 37111 ft | 432 kts | 157° |
| 2026-04-15 13:00 | 37.82039 | 24.12971 | 37110 ft | 416 kts | 157° |
| 2026-04-15 13:00 | 37.79498 | 24.14618 | 37112 ft | 406 kts | 157° |
| 2026-04-15 13:00 | 37.74494 | 24.17831 | 37113 ft | 402 kts | 158° |
| 2026-04-15 13:01 | 37.69512 | 24.21024 | 37109 ft | 401 kts | 158° |
| 2026-04-15 13:01 | 37.64532 | 24.24220 | 37104 ft | 401 kts | 157° |
| 2026-04-15 13:02 | 37.60402 | 24.26865 | 37104 ft | 401 kts | 157° |
| 2026-04-15 13:02 | 37.55443 | 24.30090 | 37105 ft | 402 kts | 153° |
| 2026-04-15 13:03 | 37.50689 | 24.33826 | 37089 ft | 403 kts | 152° |
| 2026-04-15 13:03 | 37.45938 | 24.37562 | 37090 ft | 403 kts | 152° |
| 2026-04-15 13:04 | 37.41180 | 24.41284 | 37065 ft | 402 kts | 152° |
| 2026-04-15 13:04 | 37.36428 | 24.45012 | 37069 ft | 402 kts | 152° |
| 2026-04-15 13:05 | 37.31680 | 24.48743 | 37067 ft | 402 kts | 152° |
| 2026-04-15 13:05 | 37.26927 | 24.52458 | 37068 ft | 402 kts | 152° |
| 2026-04-15 13:06 | 37.22168 | 24.56165 | 37061 ft | 402 kts | 152° |
| 2026-04-15 13:06 | 37.17443 | 24.59838 | 37060 ft | 402 kts | 152° |
| 2026-04-15 13:07 | 37.12684 | 24.63536 | 37049 ft | 402 kts | 152° |
| 2026-04-15 13:07 | 37.07930 | 24.67234 | 37046 ft | 402 kts | 152° |
| 2026-04-15 13:08 | 37.03175 | 24.70927 | 37051 ft | 402 kts | 152° |
| 2026-04-15 13:08 | 36.98418 | 24.74612 | 37052 ft | 402 kts | 152° |
| 2026-04-15 13:09 | 36.93658 | 24.78291 | 37054 ft | 402 kts | 152° |
| 2026-04-15 13:09 | 36.88900 | 24.81966 | 37053 ft | 402 kts | 152° |
| 2026-04-15 13:10 | 36.84146 | 24.85645 | 37047 ft | 402 kts | 152° |
| 2026-04-15 13:10 | 36.79391 | 24.89331 | 37046 ft | 402 kts | 152° |
| 2026-04-15 13:11 | 36.74632 | 24.93004 | 37042 ft | 402 kts | 152° |
| 2026-04-15 13:11 | 36.69865 | 24.96676 | 37037 ft | 403 kts | 152° |
| 2026-04-15 13:12 | 36.65095 | 25.00335 | 37038 ft | 403 kts | 152° |
| 2026-04-15 13:12 | 36.60324 | 25.03984 | 37040 ft | 402 kts | 152° |
| 2026-04-15 13:13 | 36.55561 | 25.07622 | 37050 ft | 401 kts | 152° |
| 2026-04-15 13:13 | 36.50815 | 25.11252 | 37052 ft | 400 kts | 152° |
| 2026-04-15 13:14 | 36.46107 | 25.14856 | 37036 ft | 401 kts | 152° |
| 2026-04-15 13:14 | 36.41336 | 25.18490 | 36784 ft | 406 kts | 152° |
| 2026-04-15 13:15 | 36.38903 | 25.20337 | 35892 ft | 413 kts | 152° |
| 2026-04-15 13:15 | 36.36436 | 25.22208 | 34929 ft | 419 kts | 152° |
| 2026-04-15 13:15 | 36.33940 | 25.24104 | 34189 ft | 420 kts | 151° |
| 2026-04-15 13:15 | 36.31458 | 25.25991 | 33562 ft | 417 kts | 151° |
| 2026-04-15 13:16 | 36.28996 | 25.27862 | 32926 ft | 414 kts | 151° |
| 2026-04-15 13:16 | 36.26549 | 25.29722 | 32292 ft | 410 kts | 151° |
| 2026-04-15 13:16 | 36.24134 | 25.31559 | 30973 ft | 411 kts | 151° |
| 2026-04-15 13:16 | 36.21675 | 25.33421 | 29319 ft | 418 kts | 150° |
| 2026-04-15 13:17 | 36.19177 | 25.35305 | 27561 ft | 423 kts | 150° |
| 2026-04-15 13:17 | 36.16667 | 25.37192 | 26233 ft | 419 kts | 151° |
| 2026-04-15 13:17 | 36.14202 | 25.39049 | 25019 ft | 413 kts | 150° |
| 2026-04-15 13:17 | 36.11684 | 25.40687 | 23834 ft | 404 kts | 160° |
| 2026-04-15 13:18 | 36.09059 | 25.41808 | 22544 ft | 396 kts | 164° |
| 2026-04-15 13:18 | 36.06458 | 25.42856 | 21335 ft | 390 kts | 164° |
| 2026-04-15 13:18 | 36.03902 | 25.43885 | 20192 ft | 383 kts | 165° |
| 2026-04-15 13:18 | 36.01328 | 25.44440 | 19143 ft | 371 kts | 183° |
| 2026-04-15 13:19 | 35.98830 | 25.43845 | 18371 ft | 365 kts | 204° |
| 2026-04-15 13:19 | 35.96726 | 25.42182 | 17852 ft | 357 kts | 223° |
| 2026-04-15 13:19 | 35.94990 | 25.40093 | 17716 ft | 341 kts | 225° |
| 2026-04-15 13:19 | 35.93340 | 25.38074 | 17580 ft | 327 kts | 225° |
| 2026-04-15 13:20 | 35.91779 | 25.36159 | 17445 ft | 314 kts | 225° |
| 2026-04-15 13:20 | 35.90262 | 25.34296 | 17310 ft | 303 kts | 225° |
| 2026-04-15 13:20 | 35.88794 | 25.32489 | 17183 ft | 293 kts | 225° |
| 2026-04-15 13:20 | 35.87387 | 25.30732 | 17049 ft | 283 kts | 225° |
| 2026-04-15 13:21 | 35.86024 | 25.29026 | 16922 ft | 275 kts | 225° |
| 2026-04-15 13:21 | 35.84698 | 25.27363 | 16716 ft | 270 kts | 225° |
| 2026-04-15 13:21 | 35.83390 | 25.25719 | 16455 ft | 267 kts | 225° |
| 2026-04-15 13:21 | 35.82094 | 25.24082 | 16181 ft | 266 kts | 225° |
| 2026-04-15 13:22 | 35.80810 | 25.22454 | 15910 ft | 264 kts | 225° |
| 2026-04-15 13:22 | 35.79535 | 25.20828 | 15645 ft | 263 kts | 225° |
| 2026-04-15 13:22 | 35.78274 | 25.19214 | 15268 ft | 259 kts | 225° |
| 2026-04-15 13:22 | 35.77031 | 25.17611 | 14755 ft | 258 kts | 225° |
| 2026-04-15 13:23 | 35.75803 | 25.16012 | 14262 ft | 256 kts | 225° |
| 2026-04-15 13:23 | 35.74594 | 25.14422 | 13778 ft | 253 kts | 225° |
| 2026-04-15 13:23 | 35.73400 | 25.12838 | 13227 ft | 252 kts | 225° |
| 2026-04-15 13:23 | 35.72217 | 25.11263 | 12670 ft | 250 kts | 225° |
| 2026-04-15 13:24 | 35.71033 | 25.09701 | 12110 ft | 248 kts | 221° |
| 2026-04-15 13:24 | 35.69578 | 25.08632 | 11547 ft | 244 kts | 199° |
| 2026-04-15 13:24 | 35.67962 | 25.08001 | 10984 ft | 244 kts | 195° |
| 2026-04-15 13:24 | 35.66338 | 25.07421 | 10422 ft | 243 kts | 195° |
| 2026-04-15 13:25 | 35.64718 | 25.06841 | 9865 ft | 242 kts | 195° |
| 2026-04-15 13:25 | 35.63108 | 25.06259 | 9276 ft | 241 kts | 195° |
| 2026-04-15 13:25 | 35.61511 | 25.05678 | 9064 ft | 240 kts | 195° |
| 2026-04-15 13:25 | 35.59898 | 25.05090 | 8883 ft | 241 kts | 195° |
| 2026-04-15 13:26 | 35.58261 | 25.04714 | 8516 ft | 239 kts | 182° |
| 2026-04-15 13:26 | 35.56607 | 25.04636 | 8144 ft | 237 kts | 180° |
| 2026-04-15 13:26 | 35.54988 | 25.04590 | 7845 ft | 225 kts | 180° |
| 2026-04-15 13:26 | 35.53483 | 25.04544 | 7718 ft | 208 kts | 180° |
| 2026-04-15 13:27 | 35.52107 | 25.04498 | 7567 ft | 194 kts | 180° |
| 2026-04-15 13:27 | 35.50766 | 25.04450 | 7109 ft | 189 kts | 180° |
| 2026-04-15 13:27 | 35.49465 | 25.04400 | 6618 ft | 189 kts | 180° |
| 2026-04-15 13:27 | 35.48150 | 25.04338 | 6114 ft | 189 kts | 180° |
| 2026-04-15 13:28 | 35.46842 | 25.04279 | 5606 ft | 189 kts | 180° |
| 2026-04-15 13:28 | 35.45533 | 25.04216 | 5102 ft | 188 kts | 180° |
| 2026-04-15 13:28 | 35.44229 | 25.04148 | 4619 ft | 187 kts | 180° |
| 2026-04-15 13:28 | 35.42938 | 25.04078 | 4151 ft | 185 kts | 180° |
| 2026-04-15 13:29 | 35.41663 | 25.04103 | 3655 ft | 182 kts | 170° |
| 2026-04-15 13:29 | 35.40430 | 25.04403 | 3240 ft | 178 kts | 166° |
| 2026-04-15 13:29 | 35.39270 | 25.04742 | 3061 ft | 167 kts | 165° |
| 2026-04-15 13:29 | 35.38149 | 25.05073 | 2824 ft | 165 kts | 165° |
| 2026-04-15 13:30 | 35.37025 | 25.05400 | 2546 ft | 166 kts | 165° |
| 2026-04-15 13:30 | 35.35902 | 25.05740 | 2282 ft | 166 kts | 160° |
| 2026-04-15 13:30 | 35.34955 | 25.06469 | 1988 ft | 157 kts | 119° |
| 2026-04-15 13:30 | 35.34650 | 25.07691 | 1733 ft | 144 kts | 94° |
| 2026-04-15 13:31 | 35.34559 | 25.08836 | 1585 ft | 131 kts | 91° |
| 2026-04-15 13:31 | 35.34529 | 25.09915 | 1381 ft | 124 kts | 88° |
| 2026-04-15 13:31 | 35.34466 | 25.10945 | 1205 ft | 121 kts | 94° |
| 2026-04-15 13:31 | 35.34391 | 25.11966 | 968 ft | 119 kts | 92° |
| 2026-04-15 13:32 | 35.34323 | 25.12957 | 739 ft | 116 kts | 92° |
| 2026-04-15 13:32 | 35.34267 | 25.13958 | 530 ft | 118 kts | 91° |
| 2026-04-15 13:32 | 35.34181 | 25.14953 | 415 ft | 119 kts | 91° |
| 2026-04-15 13:32 | 35.34117 | 25.15958 | 227 ft | 118 kts | 94° |
| 2026-04-15 13:33 | 35.34050 | 25.16932 | 107 ft | 115 kts | 92° |
| 2026-04-15 13:33 | 35.33996 | 25.17781 | 94 ft | 74 kts | 94° |
| 2026-04-15 13:33 | 35.33964 | 25.18068 | 93 ft | 7 kts | 149° |
| 2026-04-15 13:33 | 35.33954 | 25.18048 | 93 ft | 6 kts | 254° |
| 2026-04-15 13:34 | 35.33929 | 25.18002 | 93 ft | 7 kts | 207° |
| 2026-04-15 13:34 | 35.33885 | 25.17966 | 92 ft | 8 kts | 241° |
| 2026-04-15 13:34 | 35.33883 | 25.17898 | 95 ft | 8 kts | 276° |
| 2026-04-15 13:34 | 35.33890 | 25.17828 | 93 ft | 8 kts | 276° |
| 2026-04-15 13:35 | 35.33895 | 25.17754 | 92 ft | 9 kts | 275° |
| 2026-04-15 13:35 | 35.33901 | 25.17676 | 92 ft | 10 kts | 275° |
| 2026-04-15 13:35 | 35.33907 | 25.17590 | 91 ft | 11 kts | 275° |
| 2026-04-15 13:35 | 35.33903 | 25.17512 | 92 ft | 8 kts | 236° |
| 2026-04-15 13:36 | 35.33852 | 25.17496 | 94 ft | 8 kts | 186° |
| 2026-04-15 13:36 | 35.33808 | 25.17492 | 91 ft | 4 kts | 186° |
| 2026-04-15 13:36 | 35.33803 | 25.17461 | 91 ft | 7 kts | 272° |
| 2026-04-15 13:36 | 35.33809 | 25.17427 | 91 ft | 2 kts | 310° |
| 2026-04-15 13:37 | 35.33822 | 25.17414 | 94 ft | 0 kts | 318° |